Time;durP1;ratioP1;P1;durP2;ratioP2;P2;SDS_P1;SDS_P2;PMS_P1;PMS_P2;Temp;Humidity;BMP_temperature;BMP_pressure;BME280_temperature;BME280_humidity;BME280_pressure;Samples;Min_cycle;Max_cycle;Signal;HPM_P1;HPM_P2
2023/01/10 00:01:39;;;;;;;45.58;16.10;;;;;;;;;;5099884;28;20017;-81
2023/01/10 00:04:05;;;;;;;39.92;14.38;;;;;;;;;;5099882;28;20020;-82
2023/01/10 00:06:31;;;;;;;34.67;13.15;;;;;;;;;;5082314;28;20016;-81
2023/01/10 00:08:58;;;;;;;51.90;14.55;;;;;;;;;;5099862;28;20040;-82
2023/01/10 00:14:10;;;;;;;50.00;13.73;;;;;;;;;;5099620;28;20024;-82
2023/01/10 00:16:38;;;;;;;45.08;12.95;;;;;;;;;;5071090;28;20025;-82
2023/01/10 00:19:04;;;;;;;52.22;13.18;;;;;;;;;;5080014;28;20071;-82
2023/01/10 00:21:30;;;;;;;44.53;12.15;;;;;;;;;;5079978;28;20035;-82
2023/01/10 00:24:03;;;;;;;43.70;10.80;;;;;;;;;;5081376;28;20029;-83
2023/01/10 00:26:29;;;;;;;48.20;11.75;;;;;;;;;;5080801;28;20021;-82
2023/01/10 00:28:55;;;;;;;45.85;10.50;;;;;;;;;;5071858;28;20044;-83
2023/01/10 00:31:21;;;;;;;44.13;11.02;;;;;;;;;;5064144;28;20025;-82
2023/01/10 00:33:47;;;;;;;39.25;10.23;;;;;;;;;;5066381;28;20086;-81
2023/01/10 00:36:13;;;;;;;39.63;11.20;;;;;;;;;;5064272;28;20031;-81
2023/01/10 00:38:39;;;;;;;44.65;11.75;;;;;;;;;;5087251;28;20029;-80
2023/01/10 00:43:55;;;;;;;40.30;10.48;;;;;;;;;;5093368;28;20024;-81
2023/01/10 00:43:56;;;;;;;40.70;10.35;;;;;;;;;;5094612;28;20016;-81
2023/01/10 00:46:23;;;;;;;45.53;10.88;;;;;;;;;;5093842;28;20029;-79
2023/01/10 00:48:49;;;;;;;42.22;9.77;;;;;;;;;;5089367;28;20026;-80
2023/01/10 00:51:15;;;;;;;50.85;10.98;;;;;;;;;;5070715;28;20044;-80
2023/01/10 00:53:41;;;;;;;39.20;9.43;;;;;;;;;;5088045;28;20028;-81
2023/01/10 00:56:07;;;;;;;46.90;10.10;;;;;;;;;;5088025;28;20044;-80
2023/01/10 00:58:33;;;;;;;46.88;9.43;;;;;;;;;;5089096;28;20059;-81
2023/01/10 01:00:59;;;;;;;36.50;8.98;;;;;;;;;;5087183;28;20028;-81
2023/01/10 01:03:25;;;;;;;44.75;8.77;;;;;;;;;;5084054;28;20092;-80
2023/01/10 01:05:51;;;;;;;43.80;9.65;;;;;;;;;;5084639;28;20016;-81
2023/01/10 01:08:18;;;;;;;43.50;9.30;;;;;;;;;;5092216;28;20039;-81
2023/01/10 01:10:44;;;;;;;40.22;8.07;;;;;;;;;;5089552;28;20047;-79
2023/01/10 01:13:13;;;;;;;31.80;8.07;;;;;;;;;;5088386;28;20103;-80
2023/01/10 01:15:39;;;;;;;43.08;7.88;;;;;;;;;;5087891;28;20025;-82
2023/01/10 01:18:05;;;;;;;34.90;8.55;;;;;;;;;;5087811;28;20086;-82
2023/01/10 01:20:32;;;;;;;45.25;8.50;;;;;;;;;;5088354;28;20035;-81
2023/01/10 01:22:58;;;;;;;34.17;7.90;;;;;;;;;;5089607;28;20040;-80
2023/01/10 01:25:24;;;;;;;35.25;8.55;;;;;;;;;;5071897;28;20024;-80
2023/01/10 01:27:49;;;;;;;41.80;8.63;;;;;;;;;;5072860;28;20119;-80
2023/01/10 01:30:16;;;;;;;45.85;9.23;;;;;;;;;;5087276;28;20044;-80
2023/01/10 01:32:42;;;;;;;42.10;8.43;;;;;;;;;;5086822;28;20025;-81
2023/01/10 01:35:08;;;;;;;45.47;9.23;;;;;;;;;;5073378;28;20034;-80
2023/01/10 01:37:34;;;;;;;40.50;8.88;;;;;;;;;;5090438;28;20028;-80
2023/01/10 01:40:00;;;;;;;36.53;9.20;;;;;;;;;;5072400;28;20032;-81
2023/01/10 01:42:27;;;;;;;40.65;8.65;;;;;;;;;;5090013;28;20160;-80
2023/01/10 01:45:08;;;;;;;48.33;9.48;;;;;;;;;;5087058;28;20040;-81
2023/01/10 01:47:42;;;;;;;30.52;8.23;;;;;;;;;;5064791;28;20020;-78
2023/01/10 01:50:14;;;;;;;39.72;9.10;;;;;;;;;;5092360;28;20040;-81
2023/01/10 01:52:40;;;;;;;39.65;8.43;;;;;;;;;;5069488;28;20032;-80
2023/01/10 01:55:06;;;;;;;40.30;9.07;;;;;;;;;;5088408;28;20029;-81
2023/01/10 01:57:33;;;;;;;50.58;8.43;;;;;;;;;;5087987;28;20025;-80
2023/01/10 02:00:00;;;;;;;41.63;8.27;;;;;;;;;;5087026;28;20084;-81
2023/01/10 02:02:30;;;;;;;34.13;8.57;;;;;;;;;;5089530;28;20024;-81
2023/01/10 02:05:00;;;;;;;37.85;8.10;;;;;;;;;;5073976;28;20028;-82
2023/01/10 03:45:29;;;;;;;27.52;7.00;;;;;;;;;;5093163;28;20020;-81
2023/01/10 03:47:57;;;;;;;34.53;6.68;;;;;;;;;;5096269;28;20016;-81
2023/01/10 03:50:25;;;;;;;32.70;6.70;;;;;;;;;;5098349;28;20032;-82
2023/01/10 03:52:52;;;;;;;34.15;6.85;;;;;;;;;;5081591;28;20044;-79
2023/01/10 03:55:20;;;;;;;29.90;6.90;;;;;;;;;;5079287;28;20092;-77
2023/01/10 03:57:46;;;;;;;28.70;6.70;;;;;;;;;;5087148;28;20103;-78
2023/01/10 04:00:13;;;;;;;22.25;6.10;;;;;;;;;;5085313;28;20032;-78
2023/01/10 04:02:39;;;;;;;32.40;6.63;;;;;;;;;;5087737;28;20077;-82
2023/01/10 04:05:05;;;;;;;23.05;5.50;;;;;;;;;;5081855;28;20057;-79
2023/01/10 04:07:31;;;;;;;29.20;6.70;;;;;;;;;;5095179;28;20100;-80
2023/01/10 04:09:57;;;;;;;31.38;5.88;;;;;;;;;;5098376;28;20044;-78
2023/01/10 04:12:24;;;;;;;24.23;5.72;;;;;;;;;;5097824;28;20021;-78
2023/01/10 04:14:50;;;;;;;21.30;5.35;;;;;;;;;;5087236;28;20473;-79
2023/01/10 04:17:16;;;;;;;27.58;5.93;;;;;;;;;;5082293;28;20067;-79
2023/01/10 04:19:42;;;;;;;27.85;5.65;;;;;;;;;;5081166;28;20028;-81
2023/01/10 04:22:09;;;;;;;36.92;5.88;;;;;;;;;;5079734;28;20020;-80
2023/01/10 04:24:35;;;;;;;29.55;5.63;;;;;;;;;;5081523;28;20027;-79
2023/01/10 04:27:01;;;;;;;28.17;5.20;;;;;;;;;;5078104;28;20384;-78
2023/01/10 04:29:27;;;;;;;25.15;5.30;;;;;;;;;;5078876;28;20029;-78
2023/01/10 04:31:53;;;;;;;30.25;5.82;;;;;;;;;;5096817;28;20009;-78
2023/01/10 04:34:20;;;;;;;32.70;6.47;;;;;;;;;;5098960;28;20042;-78
2023/01/10 04:36:46;;;;;;;28.42;5.10;;;;;;;;;;5081609;28;20064;-77
2023/01/10 04:39:12;;;;;;;26.75;5.53;;;;;;;;;;5099009;28;20020;-78
2023/01/10 04:41:38;;;;;;;27.85;6.30;;;;;;;;;;5081557;28;20263;-78
2023/01/10 04:44:04;;;;;;;23.70;4.68;;;;;;;;;;5085855;28;20477;-81
2023/01/10 04:46:31;;;;;;;27.20;5.47;;;;;;;;;;5063055;28;20027;-80
2023/01/10 04:48:57;;;;;;;22.10;4.53;;;;;;;;;;5080030;28;20029;-79
2023/01/10 04:51:24;;;;;;;22.05;4.93;;;;;;;;;;5078598;28;20024;-82
2023/01/10 04:53:50;;;;;;;36.42;5.00;;;;;;;;;;5079154;28;20024;-81
2023/01/10 04:56:20;;;;;;;28.55;4.82;;;;;;;;;;5087193;28;20013;-78
2023/01/10 04:58:46;;;;;;;35.35;6.13;;;;;;;;;;5085111;28;20029;-82
2023/01/10 05:01:20;;;;;;;38.38;5.82;;;;;;;;;;5084119;28;20029;-83
2023/01/10 05:03:49;;;;;;;34.17;5.63;;;;;;;;;;5084060;28;20028;-81
2023/01/10 05:06:16;;;;;;;33.13;5.07;;;;;;;;;;5088382;28;20020;-79
2023/01/10 05:08:42;;;;;;;44.85;6.60;;;;;;;;;;5092430;28;20036;-78
2023/01/10 05:11:08;;;;;;;27.23;4.82;;;;;;;;;;5090071;28;20013;-79
2023/01/10 05:13:34;;;;;;;43.03;5.57;;;;;;;;;;5091419;28;20028;-78
2023/01/10 05:16:00;;;;;;;28.92;4.60;;;;;;;;;;5089009;28;20035;-79
2023/01/10 05:18:27;;;;;;;39.70;5.75;;;;;;;;;;5091321;28;20111;-81
2023/01/10 05:20:53;;;;;;;27.33;4.70;;;;;;;;;;5092942;28;20078;-79
2023/01/10 05:23:19;;;;;;;32.20;5.28;;;;;;;;;;5094147;28;20036;-79
2023/01/10 05:25:45;;;;;;;28.13;4.88;;;;;;;;;;5079287;28;20077;-80
2023/01/10 05:28:11;;;;;;;35.60;5.00;;;;;;;;;;5093902;28;20032;-80
2023/01/10 05:30:37;;;;;;;32.78;4.28;;;;;;;;;;5066996;28;20045;-79
2023/01/10 05:33:04;;;;;;;34.78;4.80;;;;;;;;;;5106981;22;20020;-78
2023/01/10 05:35:30;;;;;;;32.20;4.47;;;;;;;;;;5060571;28;20068;-77
2023/01/10 05:37:56;;;;;;;31.13;4.05;;;;;;;;;;5076275;28;20029;-76
2023/01/10 05:40:22;;;;;;;40.22;4.90;;;;;;;;;;5076377;28;20036;-75
2023/01/10 05:42:48;;;;;;;39.60;5.28;;;;;;;;;;5061531;28;20089;-77
2023/01/10 05:45:14;;;;;;;26.42;4.55;;;;;;;;;;5081586;28;20030;-78
2023/01/10 05:47:39;;;;;;;37.08;4.85;;;;;;;;;;5077239;28;20020;-77
2023/01/10 05:50:06;;;;;;;32.35;5.22;;;;;;;;;;5076236;28;20035;-76
2023/01/10 05:52:32;;;;;;;31.70;5.95;;;;;;;;;;5076389;28;20070;-77
2023/01/10 05:54:58;;;;;;;33.72;5.32;;;;;;;;;;5078442;28;20308;-78
2023/01/10 05:57:24;;;;;;;39.55;5.80;;;;;;;;;;5081380;28;20032;-77
2023/01/10 05:59:50;;;;;;;22.15;4.97;;;;;;;;;;5077644;28;20109;-77
2023/01/10 06:02:16;;;;;;;25.25;5.20;;;;;;;;;;5079538;28;20417;-77
2023/01/10 06:04:42;;;;;;;37.25;5.50;;;;;;;;;;5089648;28;20029;-76
2023/01/10 06:07:08;;;;;;;32.00;5.00;;;;;;;;;;5085182;28;20039;-76
2023/01/10 06:09:34;;;;;;;33.88;5.30;;;;;;;;;;5085208;28;20025;-77
2023/01/10 06:12:00;;;;;;;33.22;5.28;;;;;;;;;;5088071;28;20029;-76
2023/01/10 06:14:26;;;;;;;37.78;5.35;;;;;;;;;;5085595;28;20039;-77
2023/01/10 06:16:52;;;;;;;20.48;4.80;;;;;;;;;;5085010;28;20466;-77
2023/01/10 06:19:18;;;;;;;30.45;4.88;;;;;;;;;;5066046;28;20089;-76
2023/01/10 06:21:44;;;;;;;40.13;5.30;;;;;;;;;;5085035;28;20055;-77
2023/01/10 06:24:10;;;;;;;31.45;5.15;;;;;;;;;;5067430;28;20021;-77
2023/01/10 06:26:36;;;;;;;27.52;5.30;;;;;;;;;;5084310;28;20029;-77
2023/01/10 06:29:02;;;;;;;32.97;5.65;;;;;;;;;;5084350;28;20039;-76
2023/01/10 06:31:28;;;;;;;30.27;5.45;;;;;;;;;;5084127;28;20028;-75
2023/01/10 06:33:54;;;;;;;39.10;5.88;;;;;;;;;;5079347;28;20024;-77
2023/01/10 06:36:20;;;;;;;35.17;4.75;;;;;;;;;;5079229;28;20021;-76
2023/01/10 06:38:46;;;;;;;36.40;7.22;;;;;;;;;;5081168;28;20050;-75
2023/01/10 06:41:12;;;;;;;36.85;5.38;;;;;;;;;;5080068;28;20025;-76
2023/01/10 06:43:39;;;;;;;40.45;5.35;;;;;;;;;;5077706;28;20078;-75
2023/01/10 06:46:08;;;;;;;30.98;4.97;;;;;;;;;;5061999;28;20017;-75
2023/01/10 06:48:34;;;;;;;34.70;6.78;;;;;;;;;;5063430;28;20032;-77
2023/01/10 06:51:00;;;;;;;39.95;5.55;;;;;;;;;;5082172;28;20080;-77
2023/01/10 06:53:26;;;;;;;32.53;5.32;;;;;;;;;;5082105;28;20065;-77
2023/01/10 06:55:53;;;;;;;30.10;5.45;;;;;;;;;;5085164;28;20342;-78
2023/01/10 06:58:19;;;;;;;36.88;5.43;;;;;;;;;;5089798;28;20438;-79
2023/01/10 07:00:45;;;;;;;45.28;7.10;;;;;;;;;;5083745;28;20039;-77
2023/01/10 07:03:11;;;;;;;37.30;6.63;;;;;;;;;;5066544;28;20411;-77
2023/01/10 07:05:37;;;;;;;34.47;5.32;;;;;;;;;;5087960;28;20092;-78
2023/01/10 07:08:03;;;;;;;41.28;5.85;;;;;;;;;;5092480;28;20024;-78
2023/01/10 07:10:29;;;;;;;36.63;7.72;;;;;;;;;;5087832;28;20024;-75
2023/01/10 07:12:55;;;;;;;37.85;6.00;;;;;;;;;;5089303;28;20031;-77
2023/01/10 07:15:22;;;;;;;31.20;5.55;;;;;;;;;;5083598;28;20031;-77
2023/01/10 07:17:48;;;;;;;30.42;5.40;;;;;;;;;;5086866;28;20028;-78
2023/01/10 07:20:14;;;;;;;36.20;5.20;;;;;;;;;;5072063;28;20038;-74
2023/01/10 07:22:40;;;;;;;35.13;5.28;;;;;;;;;;5090695;28;20032;-74
2023/01/10 07:25:06;;;;;;;47.63;6.38;;;;;;;;;;5098814;28;20021;-74
2023/01/10 07:27:32;;;;;;;50.35;6.68;;;;;;;;;;5069852;28;20063;-76
2023/01/10 07:29:58;;;;;;;31.95;6.45;;;;;;;;;;5081662;28;20037;-77
2023/01/10 07:32:25;;;;;;;33.13;6.00;;;;;;;;;;5082177;28;20020;-76
2023/01/10 07:34:51;;;;;;;25.25;5.03;;;;;;;;;;5078161;28;20031;-77
2023/01/10 07:37:17;;;;;;;34.50;6.47;;;;;;;;;;5059671;28;20044;-76
2023/01/10 07:39:43;;;;;;;36.38;6.15;;;;;;;;;;5080817;28;20081;-76
2023/01/10 07:42:09;;;;;;;34.17;5.53;;;;;;;;;;5079324;28;20099;-77
2023/01/10 07:44:35;;;;;;;41.67;5.97;;;;;;;;;;5066453;28;20025;-76
2023/01/10 07:47:01;;;;;;;37.70;6.43;;;;;;;;;;5077512;28;20028;-78
2023/01/10 07:49:27;;;;;;;38.50;6.35;;;;;;;;;;5065635;28;20526;-76
2023/01/10 07:51:53;;;;;;;42.97;6.80;;;;;;;;;;5062835;28;20029;-77
2023/01/10 07:54:19;;;;;;;35.17;5.90;;;;;;;;;;5081115;28;20088;-76
2023/01/10 07:56:49;;;;;;;42.90;6.75;;;;;;;;;;5061213;28;20500;-76
2023/01/10 07:59:15;;;;;;;33.40;6.55;;;;;;;;;;5082291;28;20032;-77
2023/01/10 08:01:41;;;;;;;37.28;6.40;;;;;;;;;;5079534;28;20020;-77
2023/01/10 08:04:08;;;;;;;30.80;5.88;;;;;;;;;;5079614;28;20050;-78
2023/01/10 08:06:34;;;;;;;35.05;5.65;;;;;;;;;;5077999;28;20028;-77
2023/01/10 08:09:02;;;;;;;44.08;5.93;;;;;;;;;;5079433;28;20526;-76
2023/01/10 08:11:28;;;;;;;38.95;7.13;;;;;;;;;;5077239;28;20096;-77
2023/01/10 08:13:54;;;;;;;37.10;6.68;;;;;;;;;;5079100;28;20020;-77
2023/01/10 08:16:20;;;;;;;33.33;6.18;;;;;;;;;;5078143;28;20069;-76
2023/01/10 08:18:47;;;;;;;44.30;6.80;;;;;;;;;;5058727;28;20024;-76
2023/01/10 08:21:13;;;;;;;34.65;6.40;;;;;;;;;;5080804;28;20041;-76
2023/01/10 08:23:39;;;;;;;42.60;7.10;;;;;;;;;;5076672;28;20366;-76
2023/01/10 08:26:05;;;;;;;41.03;6.88;;;;;;;;;;5077442;28;20030;-77
2023/01/10 08:28:31;;;;;;;42.92;6.65;;;;;;;;;;5078442;28;20071;-77
2023/01/10 08:30:57;;;;;;;33.25;7.03;;;;;;;;;;5077079;28;20051;-77
2023/01/10 08:33:24;;;;;;;38.70;7.07;;;;;;;;;;5078366;28;20507;-76
2023/01/10 08:35:50;;;;;;;35.33;6.88;;;;;;;;;;5077256;28;20036;-78
2023/01/10 08:38:16;;;;;;;37.65;7.55;;;;;;;;;;5080652;28;20032;-76
2023/01/10 08:40:42;;;;;;;44.72;7.60;;;;;;;;;;5073226;28;20025;-76
2023/01/10 08:43:10;;;;;;;32.83;7.10;;;;;;;;;;5076027;28;20469;-77
2023/01/10 08:45:36;;;;;;;38.38;7.40;;;;;;;;;;5074978;28;20032;-77
2023/01/10 08:48:04;;;;;;;45.08;8.63;;;;;;;;;;5074665;28;20083;-76
2023/01/10 08:50:30;;;;;;;36.47;7.75;;;;;;;;;;5076797;28;20031;-75
2023/01/10 08:52:58;;;;;;;43.63;7.63;;;;;;;;;;5074024;28;20070;-76
2023/01/10 08:55:24;;;;;;;44.75;8.50;;;;;;;;;;5058416;28;20021;-74
2023/01/10 08:57:49;;;;;;;40.92;8.45;;;;;;;;;;5075049;28;20028;-79
2023/01/10 09:00:16;;;;;;;50.47;8.80;;;;;;;;;;5059305;28;20044;-75
2023/01/10 09:02:42;;;;;;;51.53;9.15;;;;;;;;;;5074624;28;20097;-75
2023/01/10 09:05:08;;;;;;;41.08;9.45;;;;;;;;;;5078719;28;20088;-76
2023/01/10 09:07:34;;;;;;;41.35;8.77;;;;;;;;;;5078777;28;20043;-77
2023/01/10 09:10:00;;;;;;;48.85;9.05;;;;;;;;;;5081162;28;20032;-75
2023/01/10 09:15:10;;;;;;;42.22;9.75;;;;;;;;;;5078773;28;20047;-76
2023/01/10 09:17:36;;;;;;;45.58;8.75;;;;;;;;;;5079292;28;20027;-76
2023/01/10 09:20:05;;;;;;;29.75;8.07;;;;;;;;;;5087158;28;20044;-76
2023/01/10 09:22:31;;;;;;;41.40;9.45;;;;;;;;;;5078167;28;20469;-77
2023/01/10 09:24:58;;;;;;;38.83;9.18;;;;;;;;;;5075945;28;20036;-81
2023/01/10 09:27:24;;;;;;;35.70;8.15;;;;;;;;;;5056541;28;20086;-76
2023/01/10 09:29:50;;;;;;;37.92;9.35;;;;;;;;;;5059120;28;20024;-78
2023/01/10 09:32:16;;;;;;;39.65;8.68;;;;;;;;;;5077033;28;20035;-76
2023/01/10 09:34:41;;;;;;;39.53;8.73;;;;;;;;;;5078746;28;20038;-78
2023/01/10 09:37:07;;;;;;;33.13;9.23;;;;;;;;;;5073809;28;20040;-76
2023/01/10 09:39:34;;;;;;;29.80;8.40;;;;;;;;;;5076194;28;20021;-79
2023/01/10 09:42:12;;;;;;;39.47;9.43;;;;;;;;;;5077173;28;20086;-77
2023/01/10 09:44:56;;;;;;;38.22;9.32;;;;;;;;;;5079022;28;20088;-76
2023/01/10 09:47:25;;;;;;;31.25;8.88;;;;;;;;;;5076973;28;20028;-77
2023/01/10 09:50:00;;;;;;;36.78;8.80;;;;;;;;;;5077271;28;20029;-77
2023/01/10 09:52:26;;;;;;;;;;;;;;;;;;5078107;28;20031;-77
2023/01/10 09:54:52;;;;;;;37.05;9.95;;;;;;;;;;5076725;28;20375;-76
2023/01/10 09:57:20;;;;;;;39.80;10.98;;;;;;;;;;5075469;28;20035;-77
2023/01/10 09:59:49;;;;;;;46.15;11.93;;;;;;;;;;5078335;28;20020;-76
2023/01/10 10:02:23;;;;;;;39.00;11.55;;;;;;;;;;5065398;28;20029;-79
2023/01/10 10:05:00;;;;;;;45.30;11.90;;;;;;;;;;5077932;28;20094;-76
2023/01/10 10:07:26;;;;;;;43.10;11.50;;;;;;;;;;5082157;28;20032;-77
2023/01/10 10:09:52;;;;;;;33.80;11.57;;;;;;;;;;5084072;28;20044;-76
2023/01/10 10:12:18;;;;;;;45.50;12.43;;;;;;;;;;5084144;28;20035;-78
2023/01/10 10:15:09;;;;;;;59.45;16.33;;;;;;;;;;5081772;28;20473;-76
2023/01/10 10:17:45;;;;;;;41.00;12.27;;;;;;;;;;5081992;28;20180;-77
2023/01/10 10:20:31;;;;;;;51.38;14.70;;;;;;;;;;5082000;28;20043;-75
2023/01/10 10:23:20;;;;;;;50.40;13.90;;;;;;;;;;5080699;28;20032;-78
2023/01/10 10:25:54;;;;;;;46.50;14.15;;;;;;;;;;5066217;28;20037;-77
2023/01/10 10:28:30;;;;;;;48.83;14.48;;;;;;;;;;5076471;28;20484;-76
2023/01/10 10:31:09;;;;;;;53.42;14.27;;;;;;;;;;5063525;28;20404;-75
2023/01/10 10:33:53;;;;;;;47.45;15.23;;;;;;;;;;5064549;28;20028;-75
2023/01/10 10:36:19;;;;;;;51.55;14.77;;;;;;;;;;5082847;28;20021;-76
2023/01/10 10:38:46;;;;;;;44.67;15.38;;;;;;;;;;5081803;28;20029;-75
2023/01/10 10:41:36;;;;;;;43.03;14.43;;;;;;;;;;5081648;28;20032;-77
2023/01/10 10:44:21;;;;;;;48.08;15.50;;;;;;;;;;5066008;28;20041;-76
2023/01/10 10:46:47;;;;;;;51.53;15.13;;;;;;;;;;5057553;28;20111;-77
2023/01/10 10:49:17;;;;;;;42.40;14.88;;;;;;;;;;5079990;28;20064;-76
2023/01/10 10:52:03;;;;;;;60.80;17.15;;;;;;;;;;5077706;28;20039;-75
2023/01/10 10:54:30;;;;;;;60.20;16.95;;;;;;;;;;5073333;28;20032;-77
2023/01/10 10:56:57;;;;;;;43.85;15.52;;;;;;;;;;5073472;28;20458;-75
2023/01/10 10:59:23;;;;;;;52.55;14.25;;;;;;;;;;5073213;28;20025;-77
2023/01/10 11:01:50;;;;;;;48.15;14.80;;;;;;;;;;5073403;28;20025;-75
2023/01/10 11:04:18;;;;;;;43.42;14.05;;;;;;;;;;5074261;28;20043;-76
2023/01/10 11:06:48;;;;;;;53.80;14.23;;;;;;;;;;5071930;28;20497;-77
2023/01/10 11:09:17;;;;;;;45.63;14.10;;;;;;;;;;5073488;28;20404;-78
2023/01/10 11:11:44;;;;;;;46.75;13.93;;;;;;;;;;5077105;28;20032;-76
2023/01/10 11:14:11;;;;;;;46.08;14.27;;;;;;;;;;5076572;28;20017;-76
2023/01/10 11:16:39;;;;;;;45.85;14.05;;;;;;;;;;5075911;28;20416;-76
2023/01/10 11:19:11;;;;;;;46.92;14.25;;;;;;;;;;5076067;28;20059;-76
2023/01/10 11:21:39;;;;;;;43.53;14.75;;;;;;;;;;5058095;28;20443;-75
2023/01/10 11:24:14;;;;;;;37.92;13.30;;;;;;;;;;5077740;28;20032;-76
2023/01/10 11:26:40;;;;;;;52.00;14.57;;;;;;;;;;5076031;28;20025;-76
2023/01/10 11:29:08;;;;;;;45.05;13.82;;;;;;;;;;5077834;28;20484;-76
2023/01/10 11:31:36;;;;;;;52.13;14.57;;;;;;;;;;5077507;28;20032;-77
2023/01/10 11:34:05;;;;;;;43.10;14.02;;;;;;;;;;5107211;22;20194;-71
2023/01/10 11:36:51;;;;;;;41.15;14.68;;;;;;;;;;5094381;28;20126;-74
2023/01/10 11:39:16;;;;;;;46.88;14.13;;;;;;;;;;5095789;28;20027;-71
2023/01/10 11:41:42;;;;;;;59.40;15.65;;;;;;;;;;5093448;28;20024;-71
2023/01/10 11:44:21;;;;;;;45.17;15.18;;;;;;;;;;5095160;28;20113;-72
2023/01/10 11:46:49;;;;;;;66.50;15.98;;;;;;;;;;5094076;28;20028;-70
2023/01/10 11:49:18;;;;;;;52.80;15.38;;;;;;;;;;5094206;28;20028;-71
2023/01/10 11:51:52;;;;;;;44.60;16.08;;;;;;;;;;5094185;28;20109;-70
2023/01/10 11:54:22;;;;;;;55.58;17.48;;;;;;;;;;5094294;28;20472;-71
2023/01/10 11:56:56;;;;;;;58.45;17.40;;;;;;;;;;5093359;28;20437;-71
2023/01/10 11:59:23;;;;;;;61.00;17.43;;;;;;;;;;5094620;28;20028;-76
2023/01/10 12:01:57;;;;;;;44.22;15.75;;;;;;;;;;5095719;28;20496;-76
2023/01/10 12:04:23;;;;;;;55.70;16.20;;;;;;;;;;5095587;28;20035;-75
2023/01/10 12:06:52;;;;;;;45.38;15.23;;;;;;;;;;5093982;28;20035;-75
2023/01/10 12:09:36;;;;;;;55.40;16.15;;;;;;;;;;5095057;28;20028;-75
2023/01/10 12:12:21;;;;;;;47.80;15.37;;;;;;;;;;5094669;28;20024;-72
2023/01/10 12:14:49;;;;;;;54.88;15.60;;;;;;;;;;5093694;28;20262;-72
2023/01/10 12:17:33;;;;;;;47.67;15.13;;;;;;;;;;5093309;28;20028;-70
2023/01/10 12:20:00;;;;;;;50.60;15.05;;;;;;;;;;5093673;28;20110;-74
2023/01/10 12:22:30;;;;;;;57.35;14.82;;;;;;;;;;5092903;28;20393;-72
2023/01/10 12:24:58;;;;;;;45.25;13.65;;;;;;;;;;5093460;28;20480;-74
2023/01/10 12:27:26;;;;;;;47.30;14.43;;;;;;;;;;5091555;28;20028;-75
2023/01/10 12:30:01;;;;;;;46.45;14.57;;;;;;;;;;5094464;28;20027;-73
2023/01/10 12:32:30;;;;;;;44.50;13.32;;;;;;;;;;5095845;28;20031;-74
2023/01/10 12:34:59;;;;;;;62.15;13.55;;;;;;;;;;5093596;28;20085;-70
2023/01/10 12:37:28;;;;;;;46.90;12.70;;;;;;;;;;5091996;28;20023;-71
2023/01/10 12:39:58;;;;;;;48.38;12.80;;;;;;;;;;5093457;28;20028;-71
2023/01/10 12:45:29;;;;;;;48.45;12.60;;;;;;;;;;5093011;28;20018;-71
2023/01/10 12:48:02;;;;;;;45.25;13.05;;;;;;;;;;5092895;28;20024;-70
2023/01/10 12:50:31;;;;;;;50.80;13.02;;;;;;;;;;5093098;28;20073;-71
2023/01/10 12:53:12;;;;;;;42.70;11.38;;;;;;;;;;5092793;28;20042;-71
2023/01/10 12:55:40;;;;;;;44.80;11.93;;;;;;;;;;5092442;28;20431;-70
2023/01/10 12:58:09;;;;;;;48.10;11.95;;;;;;;;;;5093115;28;20045;-70
2023/01/10 13:00:37;;;;;;;46.75;11.85;;;;;;;;;;5092403;28;20024;-71
2023/01/10 13:03:05;;;;;;;44.17;11.48;;;;;;;;;;5092678;28;20366;-71
2023/01/10 13:05:31;;;;;;;47.63;10.80;;;;;;;;;;5092255;28;20098;-71
2023/01/10 13:08:04;;;;;;;48.25;10.75;;;;;;;;;;5092811;28;20092;-72
2023/01/10 13:10:30;;;;;;;49.00;11.45;;;;;;;;;;5092666;28;20491;-72
2023/01/10 13:12:59;;;;;;;44.45;10.98;;;;;;;;;;5092787;28;20099;-72
2023/01/10 13:15:25;;;;;;;53.83;15.85;;;;;;;;;;5091773;28;20020;-71
2023/01/10 13:17:54;;;;;;;57.03;14.23;;;;;;;;;;5092329;28;20542;-75
2023/01/10 13:20:23;;;;;;;56.22;13.25;;;;;;;;;;5092417;28;20028;-72
2023/01/10 13:22:54;;;;;;;47.92;12.95;;;;;;;;;;5092358;28;20028;-71
2023/01/10 13:25:29;;;;;;;51.40;11.63;;;;;;;;;;5091113;28;20032;-72
2023/01/10 13:28:02;;;;;;;45.88;11.35;;;;;;;;;;5092571;28;20488;-72
2023/01/10 13:30:31;;;;;;;35.88;10.63;;;;;;;;;;5092320;28;20031;-71
2023/01/10 13:33:02;;;;;;;44.88;10.63;;;;;;;;;;5091324;28;20024;-72
2023/01/10 13:35:36;;;;;;;39.38;11.43;;;;;;;;;;5091442;28;20102;-72
2023/01/10 13:38:02;;;;;;;38.67;12.30;;;;;;;;;;5092103;28;20050;-73
2023/01/10 13:40:30;;;;;;;47.17;11.30;;;;;;;;;;5092262;28;20039;-74
2023/01/10 13:43:19;;;;;;;33.03;10.20;;;;;;;;;;5092282;28;20028;-73
2023/01/10 13:45:45;;;;;;;44.25;11.32;;;;;;;;;;5081857;28;20036;-74
2023/01/10 13:48:25;;;;;;;38.17;11.00;;;;;;;;;;5092771;28;20468;-73
2023/01/10 13:50:56;;;;;;;34.63;11.60;;;;;;;;;;5091828;28;20028;-72
2023/01/10 13:53:28;;;;;;;42.05;11.35;;;;;;;;;;5091908;28;20106;-71
2023/01/10 13:55:57;;;;;;;33.70;10.48;;;;;;;;;;5091848;28;20080;-70
2023/01/10 14:04:31;;;;;;;48.58;12.75;;;;;;;;;;5029791;28;20076;-71
2023/01/10 14:06:58;;;;;;;49.13;14.57;;;;;;;;;;5073915;28;20032;-72
2023/01/10 14:09:24;;;;;;;43.28;11.82;;;;;;;;;;5091764;28;20024;-72
2023/01/10 14:11:50;;;;;;;41.50;11.85;;;;;;;;;;5091913;28;20059;-72
2023/01/10 14:14:27;;;;;;;43.28;12.15;;;;;;;;;;5091673;28;20020;-73
2023/01/10 14:16:55;;;;;;;50.33;12.60;;;;;;;;;;5091213;28;20016;-73
2023/01/10 14:19:27;;;;;;;45.42;12.05;;;;;;;;;;5091569;28;20035;-74
2023/01/10 14:21:54;;;;;;;42.58;11.02;;;;;;;;;;5091761;28;20154;-73
2023/01/10 14:24:23;;;;;;;49.33;11.73;;;;;;;;;;5091952;28;20115;-78
2023/01/10 14:26:50;;;;;;;49.08;11.38;;;;;;;;;;5091322;28;20104;-73
2023/01/10 14:29:17;;;;;;;41.35;10.65;;;;;;;;;;5091326;28;20069;-71
2023/01/10 14:31:48;;;;;;;48.88;11.35;;;;;;;;;;5092155;28;20024;-71
2023/01/10 14:34:30;;;;;;;49.47;11.02;;;;;;;;;;5091618;28;20069;-71
2023/01/10 14:36:56;;;;;;;46.30;10.75;;;;;;;;;;5091172;28;20020;-72
2023/01/10 14:39:22;;;;;;;43.03;10.70;;;;;;;;;;5091902;28;20035;-72
2023/01/10 14:41:52;;;;;;;36.42;10.57;;;;;;;;;;5091474;28;20036;-75
2023/01/10 14:44:22;;;;;;;46.97;10.88;;;;;;;;;;5092068;28;20431;-72
2023/01/10 14:46:48;;;;;;;40.67;10.88;;;;;;;;;;5094999;28;20042;-74
2023/01/10 14:49:23;;;;;;;45.80;10.18;;;;;;;;;;5095539;28;20024;-73
2023/01/10 14:51:49;;;;;;;49.72;9.60;;;;;;;;;;5095509;28;20020;-73
2023/01/10 14:54:16;;;;;;;42.72;10.00;;;;;;;;;;5095376;28;20427;-70
2023/01/10 14:56:44;;;;;;;46.85;9.50;;;;;;;;;;5094647;28;20451;-73
2023/01/10 14:59:23;;;;;;;40.92;8.98;;;;;;;;;;5095081;28;20449;-72
2023/01/10 15:01:50;;;;;;;39.13;8.02;;;;;;;;;;5095389;28;20028;-75
2023/01/10 15:04:17;;;;;;;42.40;8.13;;;;;;;;;;5095571;28;20028;-71
2023/01/10 15:06:50;;;;;;;39.38;8.60;;;;;;;;;;5094691;28;20047;-72
2023/01/10 15:09:16;;;;;;;51.05;9.02;;;;;;;;;;5094824;28;20096;-75
2023/01/10 15:11:42;;;;;;;48.10;9.45;;;;;;;;;;5094814;28;20043;-74
2023/01/10 15:14:09;;;;;;;43.85;9.02;;;;;;;;;;5094992;28;20654;-70
2023/01/10 15:16:37;;;;;;;44.15;8.05;;;;;;;;;;5094380;28;20024;-74
2023/01/10 15:19:03;;;;;;;37.72;7.50;;;;;;;;;;5094973;28;20384;-72
2023/01/10 15:21:29;;;;;;;37.05;7.75;;;;;;;;;;5094678;28;20024;-72
2023/01/10 15:23:55;;;;;;;43.80;8.25;;;;;;;;;;5094849;28;20510;-70
2023/01/10 15:26:24;;;;;;;36.65;7.93;;;;;;;;;;5094239;28;20094;-72
2023/01/10 15:29:15;;;;;;;36.35;7.72;;;;;;;;;;5094774;28;20103;-73
2023/01/10 15:31:43;;;;;;;36.17;7.85;;;;;;;;;;5094845;28;20070;-70
2023/01/10 15:34:10;;;;;;;40.03;8.38;;;;;;;;;;5094708;28;20032;-72
2023/01/10 15:36:40;;;;;;;39.13;8.25;;;;;;;;;;5093725;28;20024;-74
2023/01/10 15:39:06;;;;;;;45.92;9.25;;;;;;;;;;5092049;28;20032;-72
2023/01/10 15:41:34;;;;;;;45.58;8.43;;;;;;;;;;5093399;28;20035;-72
2023/01/10 15:44:20;;;;;;;41.47;7.95;;;;;;;;;;5093981;28;20069;-72
2023/01/10 15:46:56;;;;;;;52.78;8.82;;;;;;;;;;5094242;28;20061;-71
2023/01/10 15:49:24;;;;;;;44.92;8.80;;;;;;;;;;5094484;28;20032;-71
2023/01/10 15:51:50;;;;;;;42.15;9.05;;;;;;;;;;5094191;28;20515;-70
2023/01/10 15:54:19;;;;;;;46.38;9.90;;;;;;;;;;5094627;28;20387;-71
2023/01/10 15:56:52;;;;;;;34.97;8.52;;;;;;;;;;5092419;28;20430;-72
2023/01/10 15:59:21;;;;;;;38.60;8.85;;;;;;;;;;5094258;28;20384;-71
2023/01/10 16:01:54;;;;;;;43.97;8.95;;;;;;;;;;5093940;28;20032;-72
2023/01/10 16:04:20;;;;;;;43.40;10.05;;;;;;;;;;5094309;28;20069;-71
2023/01/10 16:06:47;;;;;;;46.03;9.13;;;;;;;;;;5094238;28;20025;-71
2023/01/10 16:09:18;;;;;;;47.83;9.55;;;;;;;;;;5095921;28;20052;-70
2023/01/10 16:14:34;;;;;;;55.33;10.38;;;;;;;;;;5073793;28;20031;-71
2023/01/10 16:17:00;;;;;;;53.30;9.15;;;;;;;;;;5072698;28;20034;-72
2023/01/10 16:19:27;;;;;;;46.10;10.43;;;;;;;;;;5074009;28;20086;-71
2023/01/10 16:21:58;;;;;;;43.15;11.07;;;;;;;;;;5073649;28;20035;-72
2023/01/10 16:24:26;;;;;;;49.60;10.88;;;;;;;;;;5074545;28;20161;-71
2023/01/10 16:26:52;;;;;;;47.15;9.98;;;;;;;;;;5073178;28;20029;-74
2023/01/10 16:29:21;;;;;;;53.97;9.88;;;;;;;;;;5075160;28;20029;-72